Home > Products > Valid Products > TAF

000
FTUS44 KBMX 240500
TAFMGM
TAF
KMGM 240526Z 2406/2506 00000KT P6SM SKC
     FM241600 18006KT P6SM SCT050=



000
FTUS44 KBMX 240500
TAFEET
TAF
KEET 240526Z 2406/2506 00000KT P6SM SKC
     FM241600 18006KT P6SM SCT050=



000
FTUS44 KBMX 240500
TAFTCL
TAF
KTCL 240526Z 2406/2506 00000KT P6SM SKC
     FM241600 18006KT P6SM SCT050=



000
FTUS44 KBMX 240500
TAFANB
TAF
KANB 240526Z 2406/2506 00000KT P6SM SKC
     FM241600 18006KT P6SM SCT050=



000
FTUS44 KBMX 240500
TAFTOI
TAF
KTOI 240526Z 2406/2506 00000KT P6SM SKC
     FM240800 00000KT 3SM BR SKC
     FM241300 17006KT P6SM SKC=



000
FTUS44 KBMX 240500
TAFBHM
TAF
KBHM 240526Z 2406/2506 00000KT P6SM SKC
     FM241600 18006KT P6SM SCT050=



000
FTUS44 KBMX 232300 CCA
TAFTOI
TAF COR
KTOI 232345Z 2400/2424 34005KT P6SM SKC
     FM240900 00000KT 3SM BR SKC
     FM241300 17006KT P6SM SKC=



000
FTUS44 KBMX 232300
TAFTCL
TAF
KTCL 232330Z 2400/2424 VRB03KT P6SM SKC
     FM241600 18006KT P6SM SKC=



000
FTUS44 KBMX 232300
TAFTOI
TAF
KTOI 232330Z 2400/2424 34005KT P6SM SKC
     FM241100 10001KT 3SM BR SKC
     FM241300 17006KT P6SM SKC=



000
FTUS44 KBMX 232300
TAFMGM
TAF
KMGM 232330Z 2400/2424 VRB03KT P6SM SKC
     FM241600 18006KT P6SM SKC=



000
FTUS44 KBMX 232300
TAFEET
TAF
KEET 232330Z 2400/2424 VRB03KT P6SM SKC
     FM241600 18006KT P6SM SKC=



000
FTUS44 KBMX 232300
TAFBHM
TAF
KBHM 232330Z 2400/2424 VRB03KT P6SM SKC
     FM241600 18006KT P6SM SKC=



000
FTUS44 KBMX 232300
TAFANB
TAF
KANB 232330Z 2400/2424 VRB03KT P6SM SKC
     FM241600 18006KT P6SM SKC=



000
FTUS44 KBMX 231700
TAFTCL
TAF
KTCL 231733Z 2318/2418 35005KT P6SM SKC=



000
FTUS44 KBMX 231700
TAFEET
TAF
KEET 231733Z 2318/2418 36007KT P6SM SKC=



000
FTUS44 KBMX 231700
TAFMGM
TAF
KMGM 231733Z 2318/2418 35005KT P6SM SKC=



000
FTUS44 KBMX 231700
TAFANB
TAF
KANB 231733Z 2318/2418 03007KT P6SM SKC=



000
FTUS44 KBMX 231700
TAFTOI
TAF
KTOI 231733Z 2318/2418 34005KT P6SM SKC
     FM241100 10001KT 3SM BR SKC
     FM241300 VRB03KT P6SM SKC=



000
FTUS44 KBMX 231700
TAFBHM
TAF
KBHM 231733Z 2318/2418 36007KT P6SM SKC=



000
FTUS44 KBMX 231700
TAFMGM
TAF
KMGM 231729Z 2318/2418 35005KT P6SM SKC=



000
FTUS44 KBMX 231700
TAFTCL
TAF
KTCL 231729Z 2318/2418 35005KT P6SM SKC=



000
FTUS44 KBMX 231700
TAFEET
TAF
KEET 231729Z 2318/2418 36007KT P6SM SKC=



000
FTUS44 KBMX 231700
TAFANB
TAF
KANB 231729Z 2318/2418 03007KT P6SM SKC=



000
FTUS44 KBMX 231700
TAFBHM
TAF
KBHM 231729Z 2318/2418 36007KT P6SM SKC=



000
FTUS44 KBMX 231700
TAFTOI
TAF
KTOI 231729Z 2318/2418 34005KT P6SM SKC=



000
FTUS44 KBMX 231400 AAB
TAFMGM
TAF AMD
KMGM 231452Z 2315/2412 36005KT P6SM SKC=



000
FTUS44 KBMX 231300 AAA
TAFEET
TAF AMD
KEET 231307Z 2313/2412 00000KT P6SM SKC
     FM231500 35006KT P6SM SKC=



000
FTUS44 KBMX 231300 AAA
TAFMGM
TAF AMD
KMGM 231301Z 2313/2412 00000KT 1/2SM FG VV002
     FM231400 VRB03KT 3SM BR SKC
     FM231600 35005KT P6SM SKC=



000
FTUS44 KBMX 231300 AAA
TAFTOI
TAF AMD
KTOI 231301Z 2313/2412 00000KT 1/4SM FG VV001
     FM231400 VRB03KT 3SM BR SKC
     FM231600 35005KT P6SM SKC=



000
FTUS44 KBMX 231100
TAFMGM
TAF
KMGM 231125Z 2312/2412 00000KT 1/4SM FG VV001
     FM231300 VRB03KT 3SM BR SKC
     FM231500 35005KT P6SM SKC=



000
FTUS44 KBMX 231100
TAFTOI
TAF
KTOI 231125Z 2312/2412 00000KT 1/4SM FG VV001
     FM231300 VRB03KT 3SM BR SKC
     FM231500 35005KT P6SM SKC=



000
FTUS44 KBMX 231100
TAFTCL
TAF
KTCL 231125Z 2312/2412 34004KT P6SM SKC
     FM231300 36007KT P6SM SKC=



000
FTUS44 KBMX 231100
TAFEET
TAF
KEET 231125Z 2312/2412 00000KT 4SM BR SKC
     FM231500 35006KT P6SM SKC=



000
FTUS44 KBMX 231100
TAFANB
TAF
KANB 231125Z 2312/2412 VRB03KT P6SM SKC
     FM231500 36006KT P6SM SKC=



000
FTUS44 KBMX 231100
TAFBHM
TAF
KBHM 231125Z 2312/2412 VRB03KT P6SM SKC
     FM231500 35007KT P6SM SKC=



000
FTUS44 KBMX 230900 AAB
TAFANB
TAF AMD
KANB 230956Z 2310/2406 VRB03KT 2SM BR BKN005
      TEMPO 2310/2313 00000KT 1/4SM FG SCT003
     FM231300 VRB03KT 4SM BR SKC
     FM231500 02006KT P6SM SKC=



000
FTUS44 KBMX 230800 AAA
TAFANB
TAF AMD
KANB 230838Z 2309/2406 VRB03KT 2SM BR BKN005
      TEMPO 2309/2313 00000KT 1SM BR SCT003
     FM231300 VRB03KT 4SM BR SKC
     FM231500 02006KT P6SM SKC=



000
FTUS44 KBMX 230800 AAA
TAFEET
TAF AMD
KEET 230834Z 2309/2406 00000KT 3SM BR SKC
      TEMPO 2309/2313 1SM BR SCT003
     FM231300 35006KT P6SM SKC=



000
FTUS44 KBMX 230800 AAA
TAFMGM
TAF AMD
KMGM 230821Z 2308/2406 00000KT 1/4SM FG VV001
     FM231400 34005KT P6SM SKC=



000
FTUS44 KBMX 230600 AAA
TAFBHM
TAF AMD
KBHM 230652Z 2307/2406 VRB03KT 4SM BR SCT005
     FM231500 02007KT P6SM SKC=



000
FTUS44 KBMX 230500
TAFTOI
TAF
KTOI 230538Z 2306/2406 00000KT 1/4SM FG VV001
     FM231300 01007KT P6SM SKC=



000
FTUS44 KBMX 230500
TAFBHM
TAF
KBHM 230538Z 2306/2406 VRB03KT P6SM SKC
      TEMPO 2307/2309 BKN005
     FM231500 02007KT P6SM SKC=



000
FTUS44 KBMX 230500
TAFMGM
TAF
KMGM 230538Z 2306/2406 00000KT 3SM BR SKC
     FM230800 00000KT 2SM BR BKN002
     FM231200 34005KT P6SM SKC=



000
FTUS44 KBMX 230500
TAFEET
TAF
KEET 230538Z 2306/2406 00000KT P6SM SKC
     FM230800 00000KT 5SM BR SKC
     FM231300 35006KT P6SM SKC=



000
FTUS44 KBMX 230500
TAFANB
TAF
KANB 230538Z 2306/2406 VRB03KT 2SM BR BKN005
     FM231000 34004KT 4SM BR SKC
     FM231200 02006KT P6SM SKC=



000
FTUS44 KBMX 230500
TAFTCL
TAF
KTCL 230538Z 2306/2406 00000KT 1/4SM FG VV001
     FM231000 34004KT 4SM BR SKC
     FM231300 03004KT P6SM SKC=



000
FTUS44 KBMX 230400 AAC
TAFANB
TAF AMD
KANB 230437Z 2305/2324 VRB03KT 2SM BR BKN005
     FM231000 34004KT 4SM BR SKC
     FM231200 02006KT P6SM SKC=



000
FTUS44 KBMX 230400 AAC
TAFTCL
TAF AMD
KTCL 230435Z 2305/2324 00000KT 1/4SM FG VV002
      TEMPO 2305/2309 2SM BR SCT002
     FM231000 34004KT 4SM BR SKC
     FM231300 03004KT P6SM SKC=



000
FTUS44 KBMX 230300 AAB
TAFANB
TAF AMD
KANB 230326Z 2303/2324 VRB03KT 2SM BR SCT004
     FM231200 02006KT P6SM SKC=



000
FTUS44 KBMX 230200 AAB
TAFTCL
TAF AMD
KTCL 230245Z 2303/2324 00000KT 2SM BR SKC
      TEMPO 2303/2307 1/2SM FG VV002
     FM230700 34004KT P6SM SKC
     FM231200 03004KT P6SM SKC=



000
FTUS44 KBMX 230200 AAA
TAFANB
TAF AMD
KANB 230227Z 2302/2324 VRB03KT 6SM BR SKC
     FM230400 30004KT 4SM BR SKC
     FM231200 02006KT P6SM SKC=



000
FTUS44 KBMX 230200 AAB
TAFTOI
TAF AMD
KTOI 230200Z 2302/2324 00000KT 1/2SM FG VV002
     FM231300 01007KT P6SM SKC=



000
FTUS44 KBMX 230100 AAA
TAFTCL
TAF AMD
KTCL 230127Z 2301/2324 00000KT 4SM BR SKC
      TEMPO 2301/2305 2SM BR SKC
     FM230600 34004KT P6SM SKC
     FM231200 03004KT P6SM SKC=



000
FTUS44 KBMX 230100 AAA
TAFMGM
TAF AMD
KMGM 230122Z 2301/2324 31004KT P6SM SCT025 BKN050
     FM230300 00000KT 4SM BR SKC
     FM230600 00000KT 2SM BR SCT002
     FM231200 34005KT P6SM SKC=



000
FTUS44 KBMX 230100 AAA
TAFTOI
TAF AMD
KTOI 230121Z 2301/2324 00000KT 4SM BR SCT060
     FM230300 00000KT 2SM BR SKC
     FM230600 00000KT 1SM BR SCT002
      TEMPO 2308/2312 1/2SM FG VV002
     FM231300 01007KT P6SM SKC=



000
FTUS44 KBMX 222300
TAFTOI
TAF
KTOI 222320Z 2300/2324 32004KT P6SM SCT025 BKN050
     FM230300 00000KT 6SM BR SKC
     FM230900 00000KT 2SM BR SKC
     FM231500 01007KT P6SM SKC=



000
FTUS44 KBMX 222300
TAFBHM
TAF
KBHM 222320Z 2300/2324 30005KT P6SM SCT025
     FM230300 34004KT P6SM SKC
     FM231500 02008KT P6SM SKC=



000
FTUS44 KBMX 222300
TAFMGM
TAF
KMGM 222320Z 2300/2324 31004KT P6SM SCT025 BKN050
     FM230300 32004KT P6SM SKC
     FM230900 00000KT 4SM BR SKC
     FM231200 34005KT P6SM SKC=



000
FTUS44 KBMX 222300
TAFANB
TAF
KANB 222320Z 2300/2324 29004KT P6SM SCT025
     FM230300 30004KT P6SM SKC
     FM230900 00000KT 4SM BR SKC
     FM231200 02006KT P6SM SKC=



000
FTUS44 KBMX 222300
TAFTCL
TAF
KTCL 222320Z 2300/2324 32004KT P6SM SCT025
     FM230300 34004KT P6SM SKC
     FM231200 03004KT P6SM SKC=



000
FTUS44 KBMX 222300
TAFEET
TAF
KEET 222320Z 2300/2324 30005KT P6SM SCT025
     FM230300 33004KT P6SM SKC
     FM231500 35006KT P6SM SKC=



000
FTUS44 KBMX 221900 AAA
TAFANB
TAF AMD
KANB 221903Z 2219/2318 24006KT P6SM VCSH BKN015 OVC020
     FM222200 28006KT P6SM VCSH BKN040
     FM230000 VRB03KT P6SM SCT040
     FM231200 02004KT P6SM SKC=



000
FTUS44 KBMX 221700
TAFMGM
TAF
KMGM 221723Z 2218/2318 28004KT P6SM VCSH BKN050
     FM230200 31004KT P6SM SCT050
     FM231200 34005KT P6SM SKC=



000
FTUS44 KBMX 221700
TAFTCL
TAF
KTCL 221723Z 2218/2318 29005KT P6SM VCSH BKN025
      TEMPO 2218/2219 5SM -RA BR
     FM222100 32005KT P6SM BKN050
     FM230000 34004KT P6SM SKC
     FM231200 03004KT P6SM SKC=



000
FTUS44 KBMX 221700
TAFANB
TAF
KANB 221723Z 2218/2318 27007KT P6SM VCSH BKN040
     FM230000 VRB03KT P6SM SCT040
     FM231200 02004KT P6SM SKC=



000
FTUS44 KBMX 221700
TAFEET
TAF
KEET 221723Z 2218/2318 29005KT P6SM VCSH BKN025
     FM222200 30005KT P6SM BKN050
     FM230100 32004KT P6SM SKC
     FM231500 35007KT P6SM SKC=



000
FTUS44 KBMX 221700
TAFBHM
TAF
KBHM 221723Z 2218/2318 29005KT P6SM VCSH BKN025
      TEMPO 2218/2220 BKN015
     FM222100 32005KT P6SM BKN050
     FM230100 34004KT P6SM SKC
     FM231500 02008KT P6SM SKC=



000
FTUS44 KBMX 221700
TAFTOI
TAF
KTOI 221723Z 2218/2318 29005KT P6SM VCSH BKN050
     FM230200 30002KT P6SM BKN070
     FM230900 35002KT 2SM BR SKC
     FM231200 00000KT 4SM BR SKC
     FM231500 01007KT P6SM SKC=



000
FTUS44 KBMX 221500 AAA
TAFTOI
TAF AMD
KTOI 221533Z 2216/2312 26009KT P6SM SCT050
     FM221800 29005KT P6SM VCSH BKN040
     FM230200 30002KT P6SM BKN070=



000
FTUS44 KBMX 221500 AAA
TAFANB
TAF AMD
KANB 221529Z 2215/2312 26006KT 5SM -SHRA OVC050
     FM221630 27007KT P6SM VCSH BKN040
     FM230000 31004KT P6SM BKN050=



000
FTUS44 KBMX 221400 AAA
TAFBHM
TAF AMD
KBHM 221453Z 2215/2312 27005KT P6SM -SHRA BKN050
     FM221600 29005KT P6SM VCSH BKN050
     FM222100 32005KT P6SM BKN050
     FM230100 34004KT P6SM SKC=



000
FTUS44 KBMX 221300 AAA
TAFEET
TAF AMD
KEET 221348Z 2214/2312 29002KT P6SM OVC070
      TEMPO 2215/2217 4SM -SHRA OVC040
     FM221700 29005KT P6SM VCSH BKN035
     FM222200 30005KT P6SM BKN050
     FM230100 32004KT P6SM SKC=



000
FTUS44 KBMX 221100
TAFEET
TAF
KEET 221133Z 2212/2312 27005KT P6SM BKN050
      TEMPO 2213/2217 2SM SHRA
     FM221700 29005KT P6SM VCSH BKN035
     FM222200 32005KT P6SM BKN050
     FM230100 34004KT P6SM SKC=



000
FTUS44 KBMX 221100
TAFTCL
TAF
KTCL 221133Z 2212/2312 27005KT P6SM BKN050
      TEMPO 2212/2215 2SM SHRA
     FM221500 29005KT P6SM VCSH BKN035
     FM222000 32005KT P6SM BKN050
     FM230000 34004KT P6SM SKC=



000
FTUS44 KBMX 221100
TAFBHM
TAF
KBHM 221133Z 2212/2312 27005KT P6SM BKN050
      TEMPO 2212/2216 2SM SHRA
     FM221600 29005KT P6SM VCSH BKN035
     FM222100 32005KT P6SM BKN050
     FM230100 34004KT P6SM SKC=



000
FTUS44 KBMX 221100
TAFMGM
TAF
KMGM 221133Z 2212/2312 21003KT 5SM BR BKN080
     FM221500 25005KT P6SM VCSH BKN050
     FM221800 28004KT P6SM VCTS BKN040CB
      TEMPO 2218/2221 2SM SHRA
     FM222100 31005KT P6SM VCSH BKN050
     FM230300 32004KT P6SM SCT050=



000
FTUS44 KBMX 221100
TAFANB
TAF
KANB 221133Z 2212/2312 00000KT P6SM VCSH BKN050
     FM221400 27006KT P6SM BKN050
      TEMPO 2214/2218 2SM SHRA
     FM221800 29005KT P6SM VCSH BKN040
     FM230100 32005KT P6SM SCT050=



000
FTUS44 KBMX 221100
TAFTOI
TAF
KTOI 221133Z 2212/2312 00000KT 1/2SM FG VV002
     FM221230 00000KT 2SM BR SCT002
     FM221300 00000KT P6SM SCT250
     FM221600 25005KT P6SM VCSH BKN050
     FM221900 29005KT P6SM VCTS BKN040CB
      TEMPO 2219/2222 2SM SHRA
     FM222200 30005KT P6SM VCSH BKN050
     FM230500 32004KT P6SM SCT050=



000
FTUS44 KBMX 221100 AAA
TAFTOI
TAF AMD
KTOI 221103Z 2211/2306 00000KT 1/2SM FG VV002
      TEMPO 2211/2212 2SM BR
     FM221230 00000KT 3SM BR SCT002
     FM221300 00000KT P6SM SCT250
     FM221600 28005KT P6SM VCTS BKN035CB OVC050
     FM230300 33006KT P6SM BKN050=



000
FTUS44 KBMX 220900 AAA
TAFTCL
TAF AMD
KTCL 220912Z 2209/2306 VRB02KT P6SM BKN080
     FM221300 23004KT 3SM -SHRA VCTS BKN040CB
     FM221600 26005KT P6SM VCSH BKN050
     FM222200 33006KT P6SM BKN050=



000
FTUS44 KBMX 220500
TAFTOI
TAF
KTOI 220526Z 2206/2306 VRB02KT P6SM SCT150
     FM221000 21003KT P6SM SCT080
      TEMPO 2210/2213 3SM BR
     FM221600 28005KT P6SM VCTS BKN035CB OVC050
     FM230300 33006KT P6SM BKN050=



000
FTUS44 KBMX 220500
TAFTCL
TAF
KTCL 220526Z 2206/2306 00000KT P6SM BKN080
     FM220800 23003KT P6SM VCSH BKN050
     FM221300 26005KT 4SM -SHRA VCTS BKN035CB
     FM222100 33006KT P6SM BKN050=



000
FTUS44 KBMX 220500
TAFBHM
TAF
KBHM 220526Z 2206/2306 VRB02KT P6SM BKN080
     FM220900 23003KT P6SM VCSH BKN050
     FM221400 29006KT 4SM -SHRA VCTS BKN035CB
     FM222100 33006KT P6SM BKN050=



000
FTUS44 KBMX 220500
TAFMGM
TAF
KMGM 220526Z 2206/2306 VRB03KT P6SM SCT250
     FM221000 21003KT P6SM BKN080
      TEMPO 2210/2213 3SM BR
     FM221600 28005KT P6SM VCTS BKN035CB OVC050
     FM230300 33006KT P6SM BKN050=



000
FTUS44 KBMX 220500
TAFEET
TAF
KEET 220526Z 2206/2306 00000KT P6SM BKN080
     FM220900 VRB02KT P6SM VCSH BKN050
     FM221400 28006KT 4SM -SHRA VCTS BKN035CB
     FM222200 32005KT P6SM BKN050=



000
FTUS44 KBMX 220500
TAFANB
TAF
KANB 220526Z 2206/2306 VRB02KT P6SM SCT080
     FM221000 24003KT P6SM VCSH BKN050
     FM221600 27006KT 5SM SHRA VCTS BKN035CB OVC050
     FM230000 32005KT P6SM BKN050=



000
FTUS44 KBMX 212300
TAFEET
TAF
KEET 212328Z 2200/2224 VRB02KT P6SM BKN080
     FM220800 23003KT P6SM VCSH BKN050
     FM221400 28006KT 4SM SHRA VCTS BKN035CB OVC050=



000
FTUS44 KBMX 212300
TAFANB
TAF
KANB 212328Z 2200/2224 VRB05KT P6SM SCT080
     FM221000 24003KT P6SM VCSH BKN050
     FM221600 27006KT 5SM SHRA VCTS BKN035CB OVC050=



000
FTUS44 KBMX 212300
TAFMGM
TAF
KMGM 212328Z 2200/2224 VRB03KT P6SM SCT250
     FM221000 21003KT P6SM BKN080
     FM221600 28005KT P6SM VCTS BKN035CB OVC050=



000
FTUS44 KBMX 212300
TAFTOI
TAF
KTOI 212328Z 2200/2224 VRB03KT P6SM SCT150
     FM221000 21003KT P6SM BKN080
     FM221600 28005KT P6SM VCTS BKN035CB OVC050=



000
FTUS44 KBMX 212300
TAFBHM
TAF
KBHM 212328Z 2200/2224 21005KT P6SM BKN080
     FM220800 23003KT P6SM VCSH BKN050
     FM221400 29006KT 5SM SHRA VCTS BKN035CB OVC050=



000
FTUS44 KBMX 212300
TAFTCL
TAF
KTCL 212328Z 2200/2224 VRB03KT P6SM BKN080
     FM220700 23003KT P6SM VCSH BKN050
     FM221300 26005KT 4SM SHRA VCTS BKN035CB OVC050=



000
FTUS44 KBMX 211700
TAFEET
TAF
KEET 211725Z 2118/2218 21005KT P6SM BKN150
     FM220800 23003KT P6SM VCSH BKN080
     FM221400 28005KT P6SM VCTS BKN035CB OVC050=



000
FTUS44 KBMX 211700
TAFTOI
TAF
KTOI 211725Z 2118/2218 18004KT P6SM SCT250
     FM221000 21003KT P6SM BKN080
     FM221600 28005KT P6SM VCTS BKN035CB OVC050=



000
FTUS44 KBMX 211700
TAFTCL
TAF
KTCL 211725Z 2118/2218 20004KT P6SM SCT080 BKN150
     FM220700 23003KT P6SM VCSH BKN050
     FM221300 26004KT P6SM VCTS BKN035CB OVC050=



000
FTUS44 KBMX 211700
TAFANB
TAF
KANB 211725Z 2118/2218 22004KT P6SM SCT150
     FM221000 24003KT P6SM VCSH BKN070
     FM221600 26006KT P6SM VCTS BKN035CB OVC050=



000
FTUS44 KBMX 211700
TAFBHM
TAF
KBHM 211725Z 2118/2218 21007KT P6SM BKN150
     FM220800 23003KT P6SM VCSH BKN080
     FM221400 29005KT P6SM VCTS BKN035CB OVC050=



000
FTUS44 KBMX 211700
TAFMGM
TAF
KMGM 211725Z 2118/2218 18004KT P6SM SCT250
     FM221000 21003KT P6SM BKN080
     FM221600 28005KT P6SM VCTS BKN035CB OVC050=



000
FTUS44 KBMX 211200 RRA
TAFEET
TAF
KEET 211229Z 2112/2212 15003KT P6SM SCT250
     FM211700 21006KT P6SM BKN150
     FM220600 23003KT P6SM VCSH BKN050=



000
FTUS44 KBMX 211200 RRA
TAFTOI
TAF
KTOI 211229Z 2112/2212 00000KT 5SM BR SCT002
     FM211230 12003KT P6SM SKC
     FM211700 18004KT P6SM SCT250
     FM220500 21003KT P6SM BKN080=



000
FTUS44 KBMX 211200 RRA
TAFBHM
TAF
KBHM 211229Z 2112/2212 15004KT P6SM SCT250
     FM211700 21007KT P6SM BKN150
     FM220600 23003KT P6SM VCSH BKN050=



000
FTUS44 KBMX 211200 RRA
TAFMGM
TAF
KMGM 211229Z 2112/2212 00000KT 1SM BR VV002
     FM211300 12003KT P6SM SKC
     FM211700 18004KT P6SM SCT250
     FM220500 21003KT P6SM BKN080=



000
FTUS44 KBMX 211200 RRA
TAFANB
TAF
KANB 211229Z 2112/2212 07003KT P6SM SCT250
     FM211500 13004KT P6SM SCT150
     FM220800 24003KT P6SM BKN070=



000
FTUS44 KBMX 211200 RRA
TAFTCL
TAF
KTCL 211229Z 2112/2212 15003KT P6SM SCT250
     FM211700 21007KT P6SM BKN150
     FM220600 23003KT P6SM VCSH BKN050=



000
FTUS44 KBMX 211100 AAA
TAFTOI
TAF AMD
KTOI 211105Z 2111/2206 00000KT 1SM BR VV002
     FM211200 12005KT P6SM BKN150=



000
FTUS44 KBMX 211000 AAA
TAFTCL
TAF AMD
KTCL 211028Z 2110/2206 00000KT 3SM BR SCT250
     FM211230 19004KT P6SM SCT250
     FM211700 21005KT P6SM BKN150=



000
FTUS44 KBMX 211000 AAA
TAFMGM
TAF AMD
KMGM 211001Z 2110/2206 00000KT 4SM BR SKC
     FM211200 12003KT P6SM SKC
     FM211700 16006KT P6SM BKN150=



    US Dept of Commerce
    National Oceanic and Atmospheric Administration
    National Weather Service
    1325 East West Highway
    Silver Spring, MD 20910
    Page Author: NWS Internet Services Team
Disclaimer
Information Quality
Credits
Glossary
Privacy Policy
Freedom of Information Act (FOIA)
About Us
Career Opportunities